Terminal Aerodrome Forecast
Issued by NWS

Home | Current Version | Previous Version | Text Only | Print | Product List | Glossary On
Versions: 1 2 3 4 5 6 7 8 9 10 11 12 13 14 15 16 17 18 19 20 21 22 23
000
FTUS43 KPAH 201100
TAFCGI
TAF
KCGI 201120Z 2012/2112 00000KT 3SM BR BCFG SKC
     FM201330 23007KT P6SM FEW060 SCT250
     FM202300 00000KT P6SM SKC=

USA.gov is the U.S. government's official web portal to all federal, state and local government web resources and services.